Hawi, Hawaii
Current Conditions -  °F | °C
As of 7:56 PM on Friday 19 Dec 2014 (Local Time) from PHSF Reporting Station
Clear Clear  
Wind Chill: 15°   Ceiling: Unl
Heat Index: 15°   Visibility: 10mi
Dew Point: -17°   Wind: 8mph
Humidity: 10%   Direction: 160°SSE
Pressure: 30.37"   Gusts: NA
Location:  20.24°N, 155.82°W
Report Text: PHSF 200556Z AUTO 16007KT 10SM CLR 15/M17 A3037 RMK AO2 SLP171 T01471166 10255 20147 52017 $
Loading
Personal Weather Stations






























Interactive Weather Map New forecast layout! Learn more

10-Day Weather Forecast

Advertisements
Track Severe Weather on mobile